createdAt,value
2022-08-08T00:00:55.024Z,0.70
2022-08-08T00:03:55.333Z,0.80
2022-08-08T00:07:16.185Z,0.88
2022-08-08T00:10:49.968Z,1.20
2022-08-08T00:14:17.166Z,1.83
2022-08-08T00:18:04.669Z,1.52
2022-08-08T00:21:09.698Z,1.08
2022-08-08T00:24:33.726Z,0.80
2022-08-08T00:27:37.928Z,1.15
2022-08-08T00:31:00.750Z,1.20
2022-08-08T00:34:57.555Z,0.90
2022-08-08T00:38:30.936Z,0.82
2022-08-08T00:41:54.857Z,0.70
2022-08-08T00:45:27.276Z,0.70
2022-08-08T00:48:43.424Z,0.93
2022-08-08T00:52:24.371Z,0.90
2022-08-08T00:55:53.783Z,0.80
2022-08-08T00:59:44.623Z,0.80
2022-08-08T01:03:59.552Z,0.85
2022-08-08T01:06:52.014Z,0.90
2022-08-08T01:09:56.573Z,1.15
2022-08-08T01:13:43.448Z,0.77
2022-08-08T01:17:19.882Z,1.05
2022-08-08T01:20:44.418Z,0.95
2022-08-08T01:24:05.869Z,0.93
2022-08-08T01:27:43.550Z,0.75
2022-08-08T01:30:53.656Z,1.05
2022-08-08T01:34:01.225Z,0.95
2022-08-08T01:37:51.019Z,0.80
2022-08-08T01:40:43.642Z,0.80
2022-08-08T01:44:11.705Z,0.90
2022-08-08T01:48:03.686Z,0.80
2022-08-08T01:51:31.368Z,0.93
2022-08-08T01:55:26.745Z,0.80
2022-08-08T01:58:39.510Z,1.00
2022-08-08T02:02:10.740Z,1.00
2022-08-08T02:06:02.867Z,1.00
2022-08-08T02:10:02.598Z,1.15
2022-08-08T02:13:05.053Z,1.00
2022-08-08T02:16:42.931Z,0.80
2022-08-08T02:20:07.599Z,0.98
2022-08-08T02:23:35.386Z,1.00
2022-08-08T02:27:21.562Z,1.10
2022-08-08T02:30:38.007Z,0.90
2022-08-08T02:34:15.070Z,0.98
2022-08-08T02:37:51.965Z,1.05
2022-08-08T02:41:59.183Z,0.90
2022-08-08T02:45:00.564Z,1.08
2022-08-08T02:48:42.824Z,0.80
2022-08-08T02:52:32.783Z,1.00
2022-08-08T02:56:03.824Z,1.05
2022-08-08T02:59:36.797Z,1.00
2022-08-08T03:03:03.755Z,1.35
2022-08-08T03:06:34.929Z,1.17
2022-08-08T03:10:02.104Z,1.10
2022-08-08T03:15:53.550Z,1.05
2022-08-08T03:17:34.055Z,0.90
2022-08-08T03:20:52.267Z,1.12
2022-08-08T03:23:57.540Z,1.00
2022-08-08T03:27:18.858Z,1.27
2022-08-08T03:30:24.985Z,1.20
2022-08-08T03:33:55.510Z,1.00
2022-08-08T03:36:48.815Z,1.20
2022-08-08T03:39:52.037Z,0.88
2022-08-08T03:43:18.074Z,1.45
2022-08-08T03:46:21.875Z,1.48
2022-08-08T03:49:58.607Z,1.40
2022-08-08T03:52:49.431Z,1.20
2022-08-08T03:55:56.868Z,1.20
2022-08-08T03:59:00.000Z,1.48
2022-08-08T04:02:31.776Z,1.45
2022-08-08T04:05:28.425Z,1.27
2022-08-08T04:08:33.326Z,1.75
2022-08-08T04:11:48.600Z,1.20
2022-08-08T04:15:03.231Z,1.20
2022-08-08T04:18:05.159Z,1.40
2022-08-08T04:21:07.217Z,1.05
2022-08-08T04:24:18.846Z,1.00
2022-08-08T04:28:03.529Z,1.00
2022-08-08T04:30:55.286Z,1.58
2022-08-08T04:33:59.468Z,1.25
2022-08-08T04:37:04.000Z,1.20
2022-08-08T04:40:10.600Z,1.00
2022-08-08T04:43:14.490Z,1.60
2022-08-08T04:46:16.844Z,1.00
2022-08-08T04:49:20.325Z,1.25
2022-08-08T04:52:34.105Z,1.10
2022-08-08T04:55:47.391Z,1.20
2022-08-08T04:58:57.687Z,1.20
2022-08-08T05:01:59.455Z,1.30
2022-08-08T05:05:02.703Z,0.85
2022-08-08T05:08:06.677Z,1.50
2022-08-08T05:11:22.646Z,1.25
2022-08-08T05:14:24.924Z,1.50
2022-08-08T05:17:26.891Z,1.25
2022-08-08T05:20:50.399Z,0.95
2022-08-08T05:24:04.319Z,1.20
2022-08-08T05:27:10.473Z,0.90
2022-08-08T05:30:12.313Z,1.05
2022-08-08T05:33:14.269Z,1.17
2022-08-08T05:36:25.538Z,1.00
2022-08-08T05:39:34.995Z,1.30
2022-08-08T05:42:42.671Z,1.20
2022-08-08T05:45:53.272Z,1.10
2022-08-08T05:48:58.102Z,1.00
2022-08-08T05:52:03.189Z,1.10
2022-08-08T05:55:14.140Z,1.10
2022-08-08T05:58:17.285Z,1.10
2022-08-08T06:01:52.656Z,1.23
2022-08-08T06:04:54.701Z,0.90
2022-08-08T06:08:01.892Z,1.20
2022-08-08T06:11:05.563Z,1.20
2022-08-08T06:14:12.860Z,1.40
2022-08-08T06:17:51.453Z,1.30
2022-08-08T06:20:46.449Z,1.10
2022-08-08T06:24:05.171Z,1.00
2022-08-08T06:27:17.436Z,1.10
2022-08-08T06:30:28.266Z,1.17
2022-08-08T06:34:26.406Z,1.60
2022-08-08T06:37:34.313Z,1.10
2022-08-08T06:40:29.319Z,1.00
2022-08-08T06:43:40.394Z,0.90
2022-08-08T06:46:42.752Z,0.90
2022-08-08T06:49:56.439Z,0.90
2022-08-08T06:53:09.811Z,0.80
2022-08-08T06:56:16.827Z,1.20
2022-08-08T06:59:18.545Z,1.02
2022-08-08T07:02:28.767Z,1.33
2022-08-08T07:05:39.991Z,1.15
2022-08-08T07:08:48.145Z,1.05
2022-08-08T07:11:56.492Z,1.10
2022-08-08T07:15:31.734Z,1.10
2022-08-08T07:18:50.638Z,1.10
2022-08-08T07:22:14.663Z,1.40
2022-08-08T07:25:24.287Z,1.30
2022-08-08T07:28:37.152Z,1.02
2022-08-08T07:31:40.936Z,1.10
2022-08-08T07:34:59.416Z,0.90
2022-08-08T07:38:09.735Z,0.70
2022-08-08T07:41:24.707Z,0.90
2022-08-08T07:44:38.185Z,1.23
2022-08-08T07:47:49.249Z,0.90
2022-08-08T07:50:58.784Z,0.88
2022-08-08T07:54:34.767Z,0.75
2022-08-08T07:58:12.813Z,2.00
2022-08-08T08:01:20.718Z,0.98
2022-08-08T08:04:33.855Z,1.00
2022-08-08T08:07:45.878Z,0.90
2022-08-08T08:10:55.664Z,1.20
2022-08-08T08:14:10.700Z,1.20
2022-08-08T08:17:18.507Z,1.25
2022-08-08T08:20:30.477Z,1.00
2022-08-08T08:23:40.600Z,1.10
2022-08-08T08:26:52.563Z,1.00
2022-08-08T08:29:57.419Z,1.00
2022-08-08T08:32:59.231Z,1.05
2022-08-08T08:36:19.524Z,1.00
2022-08-08T08:39:23.724Z,0.98
2022-08-08T08:42:32.007Z,1.00
2022-08-08T08:45:38.734Z,1.00
2022-08-08T08:48:49.502Z,0.70
2022-08-08T08:51:56.181Z,1.10
2022-08-08T08:55:00.613Z,1.20
2022-08-08T08:58:04.067Z,1.10
2022-08-08T09:01:09.896Z,1.00
2022-08-08T09:04:30.213Z,1.00
2022-08-08T09:07:52.191Z,1.23
2022-08-08T09:11:04.490Z,0.90
2022-08-08T09:14:08.884Z,1.08
2022-08-08T09:22:02.951Z,1.40
2022-08-08T09:23:44.033Z,0.98
2022-08-08T09:26:55.445Z,1.15
2022-08-08T09:30:09.827Z,0.93
2022-08-08T09:34:15.931Z,1.00
2022-08-08T09:36:39.479Z,1.00
2022-08-08T09:40:10.488Z,0.80
2022-08-08T09:44:05.026Z,1.17
2022-08-08T09:46:57.217Z,1.05
2022-08-08T09:50:15.800Z,1.15
2022-08-08T09:53:31.850Z,1.10
2022-08-08T09:56:44.628Z,1.00
2022-08-08T10:00:14.707Z,0.90
2022-08-08T10:03:20.004Z,1.00
2022-08-08T10:06:29.378Z,1.08
2022-08-08T10:09:35.867Z,1.00
2022-08-08T10:12:57.655Z,0.90
2022-08-08T10:16:09.117Z,0.93
2022-08-08T10:19:11.437Z,0.90
2022-08-08T10:22:14.619Z,0.90
2022-08-08T10:25:22.246Z,0.90
2022-08-08T10:28:25.687Z,1.10
2022-08-08T10:31:50.983Z,1.40
2022-08-08T10:35:01.327Z,1.30
2022-08-08T10:38:05.853Z,1.00
2022-08-08T10:41:17.191Z,1.20
2022-08-08T10:44:42.073Z,1.27
2022-08-08T10:47:48.557Z,1.15
2022-08-08T10:50:57.288Z,1.30
2022-08-08T10:54:00.221Z,1.30
2022-08-08T10:57:05.495Z,1.48
2022-08-08T11:00:14.102Z,1.50
2022-08-08T11:06:19.688Z,1.17
2022-08-08T11:09:22.891Z,1.20
2022-08-08T11:12:24.982Z,1.83
2022-08-08T11:15:31.212Z,1.37
2022-08-08T11:18:37.079Z,1.10
2022-08-08T11:21:55.832Z,1.30
2022-08-08T11:25:14.275Z,1.30
2022-08-08T11:28:25.607Z,1.45
2022-08-08T11:31:46.811Z,1.40
2022-08-08T11:35:10.474Z,1.50
2022-08-08T11:38:38.743Z,1.58
2022-08-08T11:41:45.076Z,1.65
2022-08-08T11:44:48.578Z,1.40
2022-08-08T11:48:02.960Z,1.60
2022-08-08T11:51:30.545Z,1.40
2022-08-08T11:54:37.920Z,1.48
2022-08-08T11:57:40.254Z,1.20
2022-08-08T12:00:53.715Z,1.30
2022-08-08T12:03:59.493Z,1.30
2022-08-08T12:07:05.713Z,1.50
2022-08-08T12:10:18.709Z,1.12
2022-08-08T12:13:38.244Z,1.45
2022-08-08T12:16:49.396Z,1.30
2022-08-08T12:19:57.178Z,1.17
2022-08-08T12:26:16.927Z,1.40
2022-08-08T12:29:21.877Z,1.30
2022-08-08T12:32:31.032Z,1.45
2022-08-08T12:35:40.084Z,1.30
2022-08-08T12:38:55.315Z,1.60
2022-08-08T12:42:01.413Z,1.00
2022-08-08T12:45:59.744Z,1.20
2022-08-08T12:48:36.567Z,1.45
2022-08-08T12:51:53.655Z,1.30
2022-08-08T12:55:09.268Z,1.17
2022-08-08T12:58:15.729Z,1.17
2022-08-08T13:01:24.573Z,1.50
2022-08-08T13:04:43.790Z,1.40
2022-08-08T13:08:03.924Z,1.30
2022-08-08T13:11:19.554Z,1.40
2022-08-08T13:14:21.297Z,1.10
2022-08-08T13:18:09.441Z,1.30
2022-08-08T13:20:50.082Z,1.67
2022-08-08T13:23:52.129Z,1.33
2022-08-08T13:27:11.643Z,1.42
2022-08-08T13:30:20.759Z,1.20
2022-08-08T13:33:23.246Z,1.42
2022-08-08T13:36:26.334Z,1.25
2022-08-08T13:39:28.502Z,1.20
2022-08-08T13:42:31.056Z,1.20
2022-08-08T13:45:33.123Z,1.20
2022-08-08T13:49:10.921Z,1.40
2022-08-08T13:52:11.619Z,1.30
2022-08-08T13:55:36.168Z,1.33
2022-08-08T13:58:56.052Z,1.10
2022-08-08T14:02:07.291Z,1.33
2022-08-08T14:05:21.918Z,1.20
2022-08-08T14:08:29.805Z,1.23
2022-08-08T14:11:34.013Z,1.45
2022-08-08T14:14:39.909Z,1.70
2022-08-08T14:17:59.231Z,1.30
2022-08-08T14:21:08.058Z,1.20
2022-08-08T14:24:33.354Z,1.30
2022-08-08T14:27:41.294Z,1.87
2022-08-08T14:30:47.669Z,1.40
2022-08-08T14:33:56.694Z,1.40
2022-08-08T14:37:06.048Z,1.30
2022-08-08T14:40:12.204Z,1.40
2022-08-08T14:43:31.762Z,1.87
2022-08-08T14:46:42.493Z,1.35
2022-08-08T14:50:06.413Z,1.70
2022-08-08T14:53:14.302Z,1.40
2022-08-08T14:56:16.438Z,1.60
2022-08-08T14:59:22.318Z,1.62
2022-08-08T15:02:58.868Z,1.80
2022-08-08T15:06:02.796Z,1.62
2022-08-08T15:09:04.710Z,1.80
2022-08-08T15:12:08.151Z,1.95
2022-08-08T15:15:10.960Z,2.03
2022-08-08T15:18:20.499Z,2.20
2022-08-08T15:21:22.499Z,1.90
2022-08-08T15:24:31.684Z,1.90
2022-08-08T15:28:04.952Z,2.03
2022-08-08T15:30:55.521Z,1.95
2022-08-08T15:33:59.055Z,1.70
2022-08-08T15:37:04.999Z,1.80
2022-08-08T15:40:11.321Z,2.03
2022-08-08T15:43:35.375Z,2.15
2022-08-08T15:46:39.226Z,2.00
2022-08-08T15:49:49.065Z,1.90
2022-08-08T15:52:51.817Z,2.10
2022-08-08T15:55:53.783Z,2.00
2022-08-08T15:58:56.838Z,1.98
2022-08-08T16:02:00.640Z,2.10
2022-08-08T16:05:04.057Z,2.12
2022-08-08T16:08:20.169Z,1.85
2022-08-08T16:13:11.732Z,1.90
2022-08-08T16:14:52.740Z,1.67
2022-08-08T16:18:06.642Z,2.42
2022-08-08T16:21:20.804Z,1.80
2022-08-08T16:24:28.334Z,1.75
2022-08-08T16:27:30.018Z,1.75
2022-08-08T16:30:36.771Z,1.80
2022-08-08T16:33:40.028Z,2.35
2022-08-08T16:36:43.624Z,1.60
2022-08-08T16:40:00.683Z,2.00
2022-08-08T16:43:06.710Z,1.80
2022-08-08T16:46:43.558Z,3.90
2022-08-08T16:49:38.385Z,1.80
2022-08-08T16:55:22.430Z,2.03
2022-08-08T16:56:03.309Z,1.62
2022-08-08T16:59:05.224Z,1.65
2022-08-08T17:02:41.871Z,1.80
2022-08-08T17:05:44.720Z,1.60
2022-08-08T17:08:50.615Z,1.73
2022-08-08T17:11:55.627Z,1.50
2022-08-08T17:15:00.998Z,2.08
2022-08-08T17:18:19.286Z,1.90
2022-08-08T17:21:21.705Z,1.67
2022-08-08T17:24:28.288Z,1.85
2022-08-08T17:27:46.056Z,1.80
2022-08-08T17:30:48.842Z,1.95
2022-08-08T17:34:48.551Z,1.85
2022-08-08T17:37:13.811Z,1.50
2022-08-08T17:40:16.055Z,1.70
2022-08-08T17:43:18.153Z,1.80
2022-08-08T17:46:39.923Z,1.90
2022-08-08T17:49:43.478Z,1.70
2022-08-08T17:52:47.620Z,1.80
2022-08-08T17:56:05.651Z,1.87
2022-08-08T17:59:09.805Z,1.87
2022-08-08T18:02:18.878Z,2.00
2022-08-08T18:05:28.215Z,1.80
2022-08-08T18:08:46.166Z,1.62
2022-08-08T18:11:51.172Z,1.87
2022-08-08T18:14:53.174Z,1.80
2022-08-08T18:18:09.882Z,2.00
2022-08-08T18:21:34.389Z,2.35
2022-08-08T18:24:39.265Z,2.00
2022-08-08T18:27:44.223Z,1.75
2022-08-08T18:30:46.648Z,2.10
2022-08-08T18:34:11.883Z,1.80
2022-08-08T18:37:33.606Z,1.60
2022-08-08T18:40:34.798Z,1.90
2022-08-08T18:43:43.096Z,1.92
2022-08-08T18:46:54.802Z,1.90
2022-08-08T18:50:00.389Z,1.70
2022-08-08T18:53:04.052Z,1.70
2022-08-08T18:56:07.035Z,1.80
2022-08-08T18:59:08.737Z,1.70
2022-08-08T19:02:25.004Z,1.73
2022-08-08T19:05:34.560Z,1.52
2022-08-08T19:08:37.118Z,1.90
2022-08-08T19:11:46.579Z,1.55
2022-08-08T19:14:48.499Z,1.70
2022-08-08T19:18:33.503Z,1.80
2022-08-08T19:21:30.318Z,1.58
2022-08-08T19:24:43.518Z,1.70
2022-08-08T19:27:59.925Z,1.70
2022-08-08T19:31:07.436Z,1.95
2022-08-08T19:34:30.231Z,1.80
2022-08-08T19:37:43.168Z,1.70
2022-08-08T19:40:45.743Z,1.50
2022-08-08T19:44:02.389Z,1.62
2022-08-08T19:47:06.583Z,1.40
2022-08-08T19:50:09.257Z,1.75
2022-08-08T19:53:37.993Z,1.60
2022-08-08T19:56:40.336Z,1.60
2022-08-08T19:59:44.004Z,1.73
2022-08-08T20:02:46.808Z,2.03
2022-08-08T20:06:13.474Z,1.60
2022-08-08T20:09:17.184Z,1.80
2022-08-08T20:12:32.911Z,1.50
2022-08-08T20:15:52.597Z,1.70
2022-08-08T20:18:59.344Z,2.00
2022-08-08T20:22:05.115Z,1.67
2022-08-08T20:25:20.149Z,2.08
2022-08-08T20:32:02.504Z,1.90
2022-08-08T20:35:01.582Z,1.70
2022-08-08T20:38:04.005Z,2.10
2022-08-08T20:41:17.503Z,1.90
2022-08-08T20:44:21.261Z,2.10
2022-08-08T20:47:28.857Z,2.05
2022-08-08T20:50:38.571Z,1.80
2022-08-08T20:54:00.214Z,1.98
2022-08-08T20:57:16.581Z,1.90
2022-08-08T21:00:20.554Z,1.85
2022-08-08T21:03:29.958Z,2.08
2022-08-08T21:06:53.328Z,1.87
2022-08-08T21:10:07.744Z,2.00
2022-08-08T21:13:14.188Z,2.03
2022-08-08T21:16:20.302Z,2.00
2022-08-08T21:19:34.094Z,2.10
2022-08-08T21:22:48.757Z,2.12
2022-08-08T21:25:53.442Z,2.37
2022-08-08T21:29:00.688Z,2.10
2022-08-08T21:36:15.000Z,2.08
2022-08-08T21:38:29.334Z,1.98
2022-08-08T21:41:38.201Z,2.30
2022-08-08T21:44:58.644Z,2.12
2022-08-08T21:48:12.964Z,2.37
2022-08-08T21:54:36.674Z,2.37
2022-08-08T21:54:53.367Z,2.10
2022-08-08T21:58:05.707Z,2.17
2022-08-08T22:01:27.210Z,2.20
2022-08-08T22:04:33.189Z,2.30
2022-08-08T22:07:40.925Z,2.15
2022-08-08T22:10:42.941Z,2.40
2022-08-08T22:13:51.225Z,2.80
2022-08-08T22:16:54.441Z,2.40
2022-08-08T22:20:12.943Z,2.70
2022-08-08T22:23:18.820Z,2.87
2022-08-08T22:26:29.039Z,2.35
2022-08-08T22:30:01.306Z,2.70
2022-08-08T22:32:54.353Z,2.80
2022-08-08T22:36:05.380Z,2.60
2022-08-08T22:39:19.488Z,2.67
2022-08-08T22:42:23.982Z,2.95
2022-08-08T22:45:29.441Z,2.90
2022-08-08T22:48:31.341Z,2.83
2022-08-08T22:51:34.918Z,2.97
2022-08-08T22:54:55.932Z,2.90
2022-08-08T22:58:05.863Z,2.95
2022-08-08T23:02:00.611Z,2.80
2022-08-08T23:04:33.560Z,2.87
2022-08-08T23:07:51.627Z,2.35
2022-08-08T23:11:06.443Z,2.90
2022-08-08T23:14:15.888Z,2.90
2022-08-08T23:17:18.133Z,3.45
2022-08-08T23:20:21.548Z,2.95
2022-08-08T23:23:28.988Z,3.00
2022-08-08T23:26:33.970Z,2.90
2022-08-08T23:29:36.604Z,3.28
2022-08-08T23:32:41.698Z,3.05
2022-08-08T23:36:06.779Z,3.60
2022-08-08T23:39:08.000Z,3.20
2022-08-08T23:42:09.734Z,3.00
2022-08-08T23:45:12.468Z,3.53
2022-08-08T23:49:00.269Z,3.35
2022-08-08T23:51:42.474Z,3.97
2022-08-08T23:55:07.234Z,3.75
2022-08-08T23:58:31.829Z,3.15
